Main page
METAR-TAF:

METAR-TAF

Airports :

Fort Smith Airport

Fort Smith, Northwest Territories, Canada

latitude: 60-01N, longitude: 111-57W, elevation: 203 m

Current weather observation

The report was made 28 minutes ago, at 13:00 UTC
Wind 2 kt from variable directions
Temperature 5°C
Humidity 75%
Pressure 1019 hPa
Visibility: 24.1 km
Few clouds at a height of 12000 ft
Few clouds at a height of 16000 ft

METAR: CYSM 201300Z VRB02KT 15SM FEW120 FEW160 05/01 A3008 RMK AC1FU1 AC TR FU TR SLP197

Time: 07:28 (13:28 UTC)

Forecast

The report was made 13 hours and 48 minutes ago, at 23:40 UTC
Forecast valid from 20 at 00 UTC to 20 at 12 UTC
Wind 6 kt from the East
Visibility: 10 km
Few clouds at a height of 4000 ft
Scattered clouds at a height of 12000 ft
From 20 at 0800 UTC
Wind 6 kt from the East
Visibility: 10 km
Clear sky

TAF: CYSM 192340Z 2000/2012 08006KT P6SM FEW040 SCT120 FM200800 10006KT P6SM SKC RMK NXT FCST BY 200600Z

Weather observations and forecasts of more than 4000 airports (METAR and TAF reports).

The available stations are represented by yellow and red dots on the map.

Hover mouse over dot to see the name of the station.

Then click to see weather observations and forecasts.

To change the map : click on the green buttons with a black cross to zoom in, on the green button with a dash to zoom out, or on the green arrows for adjacent maps.


METAR-TAF: